Time;durP1;ratioP1;P1;durP2;ratioP2;P2;SDS_P1;SDS_P2;PMS_P1;PMS_P2;Temp;Humidity;BMP_temperature;BMP_pressure;BME280_temperature;BME280_humidity;BME280_pressure;Samples;Min_cycle;Max_cycle;Signal;HPM_P1;HPM_P2
2023/05/30 00:01:51;;;;;;;8.30;4.70;;;;;;;15.99;53.52;100546.98;106476;1253;63683;-64
2023/05/30 00:04:21;;;;;;;14.70;4.90;;;;;;;15.93;53.67;100543.68;106410;1254;60623;-64
2023/05/30 00:06:49;;;;;;;7.60;4.60;;;;;;;15.88;53.85;100541.74;106415;1254;63862;-64
2023/05/30 00:09:17;;;;;;;8.60;4.40;;;;;;;15.83;53.96;100544.86;106319;1254;60390;-64
2023/05/30 00:11:44;;;;;;;8.60;4.30;;;;;;;15.81;54.05;100543.34;106441;1259;60424;-65
2023/05/30 00:14:12;;;;;;;9.10;4.40;;;;;;;15.78;53.97;100542.66;106514;1253;66019;-65
2023/05/30 00:16:41;;;;;;;8.20;4.70;;;;;;;15.75;53.99;100538.21;106505;1257;60602;-63
2023/05/30 00:19:08;;;;;;;8.10;4.50;;;;;;;15.70;54.22;100537.09;106332;1254;63683;-66
2023/05/30 00:21:36;;;;;;;8.80;4.40;;;;;;;15.64;54.50;100534.20;106348;1255;60517;-66
2023/05/30 00:24:04;;;;;;;8.70;4.30;;;;;;;15.55;54.71;100537.72;106251;1254;60558;-64
2023/05/30 00:26:31;;;;;;;7.70;4.40;;;;;;;15.53;54.92;100535.08;106316;1256;65090;-64
2023/05/30 00:28:59;;;;;;;8.10;4.10;;;;;;;15.56;54.93;100530.64;106315;1259;71420;-65
2023/05/30 00:31:26;;;;;;;8.50;5.10;;;;;;;15.58;54.79;100529.58;106230;1254;63698;-64
2023/05/30 00:33:54;;;;;;;7.40;4.40;;;;;;;15.58;54.85;100532.30;106279;1256;61000;-67
2023/05/30 00:36:22;;;;;;;6.90;4.10;;;;;;;15.54;54.64;100531.05;106257;1257;60689;-64
2023/05/30 00:38:49;;;;;;;11.20;5.30;;;;;;;15.48;54.49;100533.08;106255;1255;66855;-63
2023/05/30 00:41:17;;;;;;;7.20;4.20;;;;;;;15.43;54.55;100536.77;106334;1256;60456;-66
2023/05/30 00:43:44;;;;;;;10.00;5.00;;;;;;;15.39;54.46;100534.11;106291;1257;66398;-65
2023/05/30 00:46:14;;;;;;;10.80;4.30;;;;;;;15.38;54.53;100528.58;106310;1257;60862;-65
2023/05/30 00:48:41;;;;;;;8.50;4.80;;;;;;;15.39;54.59;100524.77;108717;1256;58161;-66
2023/05/30 00:51:10;;;;;;;9.20;4.90;;;;;;;15.38;54.60;100523.42;108634;1257;64871;-64
2023/05/30 00:53:39;;;;;;;9.50;5.30;;;;;;;15.37;54.64;100521.09;108605;1255;62551;-65
2023/05/30 00:56:07;;;;;;;9.50;5.50;;;;;;;15.34;54.55;100518.68;108603;1254;64235;-65
2023/05/30 00:58:35;;;;;;;8.50;4.60;;;;;;;15.30;54.52;100520.39;108709;1259;58723;-65
2023/05/30 01:01:03;;;;;;;9.70;4.50;;;;;;;15.24;54.48;100522.66;108719;1255;60701;-66
2023/05/30 01:03:33;;;;;;;11.10;4.80;;;;;;;15.22;54.47;100519.65;108726;1256;63701;-66
2023/05/30 01:06:01;;;;;;;8.30;4.80;;;;;;;15.21;54.42;100513.42;108816;1259;61441;-66
2023/05/30 01:08:29;;;;;;;7.80;5.20;;;;;;;15.20;54.40;100513.35;108854;1254;63746;-65
2023/05/30 01:11:08;;;;;;;11.40;5.50;;;;;;;15.18;54.41;100512.36;108675;1254;59993;-63
2023/05/30 01:13:41;;;;;;;8.80;5.00;;;;;;;15.16;54.28;100513.80;108577;1257;60539;-67
2023/05/30 01:16:13;;;;;;;9.20;5.10;;;;;;;15.16;54.15;100512.11;108543;1254;64907;-65
2023/05/30 01:18:50;;;;;;;10.30;5.30;;;;;;;15.16;54.05;100513.10;108657;1257;61907;-65
2023/05/30 01:21:18;;;;;;;9.00;5.30;;;;;;;15.14;53.91;100509.36;108724;1257;63744;-65
2023/05/30 01:23:52;;;;;;;8.60;5.10;;;;;;;15.14;53.70;100510.27;108583;1257;59068;-65
2023/05/30 01:26:38;;;;;;;8.30;5.00;;;;;;;15.16;53.44;100512.20;108861;1254;58900;-66
2023/05/30 01:29:06;;;;;;;;;;;;;;;15.16;53.53;100509.30;108644;1254;65570;-66
2023/05/30 01:31:33;;;;;;;7.10;5.10;;;;;;;15.14;53.67;100509.14;108694;1255;60556;-65
2023/05/30 01:34:01;;;;;;;8.70;5.50;;;;;;;15.12;53.58;100506.76;108684;1256;63880;-64
2023/05/30 01:36:30;;;;;;;13.10;5.60;;;;;;;15.13;53.37;100506.64;108536;1255;58279;-64
2023/05/30 01:38:58;;;;;;;9.20;5.70;;;;;;;15.15;53.00;100503.25;108606;1261;58584;-65
2023/05/30 01:41:31;;;;;;;9.60;5.50;;;;;;;15.18;52.76;100504.40;108843;1255;66111;-65
2023/05/30 01:44:03;;;;;;;11.60;5.70;;;;;;;15.19;52.58;100502.70;108600;1254;60176;-65
2023/05/30 01:46:35;;;;;;;10.30;5.90;;;;;;;15.19;52.52;100503.36;108549;1257;77672;-65
2023/05/30 01:49:29;;;;;;;10.30;5.30;;;;;;;15.19;52.35;100503.16;108582;1261;59016;-65
2023/05/30 01:52:01;;;;;;;10.50;5.30;;;;;;;15.20;52.31;100504.92;108914;1254;58194;-65
2023/05/30 01:54:30;;;;;;;9.20;5.50;;;;;;;15.18;52.32;100505.20;108563;1259;65480;-66
2023/05/30 01:57:16;;;;;;;10.90;5.60;;;;;;;15.17;52.36;100505.86;108636;1261;61380;-65
2023/05/30 01:59:44;;;;;;;8.60;5.40;;;;;;;15.13;52.61;100507.30;108718;1254;63692;-65
2023/05/30 02:02:11;;;;;;;10.70;5.90;;;;;;;15.09;52.87;100509.11;108557;1260;58503;-62
2023/05/30 02:04:39;;;;;;;11.80;5.70;;;;;;;15.07;53.11;100509.48;108724;1255;58351;-65
2023/05/30 02:07:07;;;;;;;8.90;5.30;;;;;;;15.06;53.46;100508.68;108741;1259;73982;-64
2023/05/30 02:09:35;;;;;;;8.80;5.50;;;;;;;15.07;53.76;100509.39;108695;1259;60232;-65
2023/05/30 02:12:04;;;;;;;9.40;4.50;;;;;;;15.11;53.85;100510.00;108596;1255;63824;-64
2023/05/30 02:14:31;;;;;;;9.00;4.90;;;;;;;15.17;54.00;100509.90;108762;1257;58600;-64
2023/05/30 02:16:59;;;;;;;11.00;5.50;;;;;;;15.21;54.16;100512.52;108705;1257;59031;-64
2023/05/30 02:19:29;;;;;;;8.20;5.10;;;;;;;15.26;54.43;100512.21;108800;1257;66259;-63
2023/05/30 02:21:56;;;;;;;9.50;5.20;;;;;;;15.30;54.62;100513.45;108784;1257;61368;-64
2023/05/30 02:24:24;;;;;;;9.20;5.30;;;;;;;15.32;55.09;100513.66;108701;1257;64372;-64
2023/05/30 02:26:53;;;;;;;10.30;6.00;;;;;;;15.33;55.51;100514.79;108683;1257;58980;-65
2023/05/30 02:29:20;;;;;;;9.50;5.40;;;;;;;15.32;55.75;100522.98;108758;1259;58746;-64
2023/05/30 02:31:48;;;;;;;10.80;6.40;;;;;;;15.31;56.12;100519.48;108799;1255;65447;-63
2023/05/30 02:34:15;;;;;;;9.20;6.30;;;;;;;15.32;56.57;100513.79;108752;1256;61314;-64
2023/05/30 02:36:44;;;;;;;9.10;6.00;;;;;;;15.37;56.64;100511.48;108707;1259;62431;-64
2023/05/30 02:39:12;;;;;;;10.70;6.40;;;;;;;15.42;56.49;100510.14;108628;1257;59167;-64
2023/05/30 02:41:42;;;;;;;11.80;5.70;;;;;;;15.40;56.40;100510.83;108525;1254;60602;-64
2023/05/30 02:44:09;;;;;;;10.50;7.00;;;;;;;15.38;56.35;100507.16;108830;1257;64919;-65
2023/05/30 02:46:37;;;;;;;10.20;6.70;;;;;;;15.40;56.46;100506.61;108637;1257;60092;-65
2023/05/30 02:49:05;;;;;;;11.60;6.00;;;;;;;15.40;56.33;100502.16;108685;1257;63740;-64
2023/05/30 02:51:33;;;;;;;12.90;6.20;;;;;;;15.36;56.25;100508.24;108752;1254;61032;-65
2023/05/30 02:54:01;;;;;;;10.70;7.00;;;;;;;15.33;56.34;100509.66;108635;1255;58288;-66
2023/05/30 02:56:45;;;;;;;12.20;7.30;;;;;;;15.30;56.62;100510.63;108748;1255;63840;-65
2023/05/30 02:59:29;;;;;;;11.60;7.10;;;;;;;15.29;56.80;100510.52;108649;1260;60294;-65
2023/05/30 03:02:03;;;;;;;9.80;6.50;;;;;;;15.29;56.92;100509.49;108616;1255;65502;-65
2023/05/30 03:04:31;;;;;;;11.50;7.30;;;;;;;15.35;57.12;100510.12;108639;1254;58435;-64
2023/05/30 03:06:59;;;;;;;11.30;7.20;;;;;;;15.49;57.44;100513.37;108838;1257;58552;-66
2023/05/30 03:09:30;;;;;;;15.30;8.00;;;;;;;15.63;57.50;100514.61;108622;1257;65608;-64
2023/05/30 03:11:57;;;;;;;12.50;7.90;;;;;;;15.75;57.51;100518.02;108647;1254;61405;-65
2023/05/30 03:14:25;;;;;;;12.50;7.30;;;;;;;15.87;57.33;100516.76;108700;1255;62483;-65
2023/05/30 03:16:54;;;;;;;13.60;8.60;;;;;;;15.95;57.06;100519.22;108621;1257;60191;-64
2023/05/30 03:19:23;;;;;;;13.40;7.60;;;;;;;16.03;56.85;100516.98;108606;1255;58788;-64
2023/05/30 03:21:52;;;;;;;17.00;8.30;;;;;;;16.11;56.65;100517.50;108670;1257;65678;-63
2023/05/30 03:24:20;;;;;;;12.70;9.10;;;;;;;16.16;56.36;100516.77;108725;1254;60083;-63
2023/05/30 03:26:47;;;;;;;14.80;9.40;;;;;;;16.21;56.10;100514.67;108691;1256;63673;-62
2023/05/30 03:29:16;;;;;;;13.20;10.20;;;;;;;16.28;56.05;100509.01;108681;1255;58795;-62
2023/05/30 03:31:44;;;;;;;16.10;9.80;;;;;;;16.37;55.92;100510.92;108757;1254;58477;-63
2023/05/30 03:34:11;;;;;;;15.90;9.30;;;;;;;16.44;55.79;100512.02;108598;1254;67439;-63
2023/05/30 03:36:40;;;;;;;14.70;10.50;;;;;;;16.49;55.92;100512.34;108724;1254;61364;-64
2023/05/30 03:39:08;;;;;;;18.00;9.10;;;;;;;16.54;55.89;100513.27;108717;1256;62480;-64
2023/05/30 03:41:36;;;;;;;14.00;9.70;;;;;;;16.58;55.77;100513.21;108743;1257;58747;-63
2023/05/30 03:44:04;;;;;;;12.80;9.00;;;;;;;16.61;55.72;100513.30;108826;1259;59130;-64
2023/05/30 03:46:32;;;;;;;15.40;9.40;;;;;;;16.62;55.80;100513.11;108557;1254;64956;-63
2023/05/30 03:49:01;;;;;;;12.00;9.20;;;;;;;16.64;55.91;100513.67;108568;1254;60114;-62
2023/05/30 03:51:29;;;;;;;11.90;8.10;;;;;;;16.69;55.82;100512.21;108706;1257;62458;-62
2023/05/30 03:53:56;;;;;;;13.60;9.10;;;;;;;16.79;55.60;100512.64;108818;1257;58442;-62
2023/05/30 03:56:23;;;;;;;12.10;8.20;;;;;;;16.87;55.67;100512.70;108730;1259;58582;-62
2023/05/30 03:58:52;;;;;;;15.00;8.00;;;;;;;16.95;55.52;100513.70;108586;1255;66016;-62
2023/05/30 04:01:19;;;;;;;13.10;8.60;;;;;;;17.02;55.23;100514.92;108726;1259;61379;-63
2023/05/30 04:03:47;;;;;;;13.90;9.30;;;;;;;17.08;55.14;100515.11;108672;1257;63890;-62
2023/05/30 04:06:15;;;;;;;13.60;8.90;;;;;;;17.13;55.10;100514.12;108733;1255;58169;-62
2023/05/30 04:08:42;;;;;;;12.40;7.80;;;;;;;17.16;55.07;100514.27;108823;1257;59729;-63
2023/05/30 04:11:10;;;;;;;11.30;7.30;;;;;;;17.20;54.75;100514.05;108725;1254;78708;-62
2023/05/30 04:13:37;;;;;;;10.10;6.90;;;;;;;17.23;54.37;100514.45;108698;1258;69347;-63
2023/05/30 04:16:05;;;;;;;9.90;5.70;;;;;;;17.25;54.33;100517.00;108692;1256;63720;-61
2023/05/30 04:18:40;;;;;;;11.00;6.30;;;;;;;17.29;53.38;100514.35;108632;1257;58947;-63
2023/05/30 04:21:09;;;;;;;8.00;4.70;;;;;;;17.34;52.82;100514.55;108592;1257;58737;-62
2023/05/30 04:23:41;;;;;;;6.80;3.50;;;;;;;17.39;51.42;100516.05;108569;1256;64966;-63
2023/05/30 04:26:09;;;;;;;9.10;4.30;;;;;;;17.44;49.43;100518.20;108667;1255;61338;-62
2023/05/30 04:28:36;;;;;;;7.70;3.70;;;;;;;17.49;48.26;100516.50;108568;1257;63774;-61
2023/05/30 04:31:07;;;;;;;8.30;3.80;;;;;;;17.54;48.23;100514.55;108634;1260;58819;-63
2023/05/30 04:33:53;;;;;;;7.10;3.90;;;;;;;17.59;47.64;100515.41;108599;1255;59062;-62
2023/05/30 04:36:22;;;;;;;8.50;3.70;;;;;;;17.63;47.33;100513.52;108616;1257;63694;-61
2023/05/30 04:38:52;;;;;;;6.70;3.70;;;;;;;17.68;47.69;100513.23;108639;1257;61713;-62
2023/05/30 04:41:20;;;;;;;10.40;3.90;;;;;;;17.74;47.84;100517.88;108704;1254;64096;-62
2023/05/30 04:43:52;;;;;;;5.50;2.80;;;;;;;17.80;47.24;100519.52;108604;1261;58263;-62
2023/05/30 04:46:23;;;;;;;6.60;3.50;;;;;;;17.86;46.61;100522.84;108669;1255;61067;-61
2023/05/30 04:48:55;;;;;;;8.30;3.10;;;;;;;17.91;45.96;100526.23;108741;1254;64973;-62
2023/05/30 04:51:23;;;;;;;6.40;3.10;;;;;;;17.94;45.61;100521.73;108608;1257;61955;-63
2023/05/30 04:53:50;;;;;;;7.40;3.40;;;;;;;17.99;45.57;100521.56;108686;1257;62461;-61
2023/05/30 04:56:19;;;;;;;8.00;3.30;;;;;;;18.05;45.63;100522.02;108678;1257;58641;-63
2023/05/30 04:58:48;;;;;;;8.70;4.10;;;;;;;18.10;45.62;100522.27;108747;1254;58792;-63
2023/05/30 05:01:18;;;;;;;6.30;3.30;;;;;;;18.16;45.58;100525.02;108618;1260;63657;-63
2023/05/30 05:03:46;;;;;;;6.60;3.10;;;;;;;18.22;45.47;100522.77;108752;1256;61455;-62
2023/05/30 05:06:14;;;;;;;7.70;3.50;;;;;;;18.28;44.63;100527.98;108758;1257;62439;-62
2023/05/30 05:08:41;;;;;;;9.30;3.30;;;;;;;18.34;44.60;100530.63;108670;1259;59772;-64
2023/05/30 05:11:09;;;;;;;6.30;3.10;;;;;;;18.41;44.06;100531.67;108843;1257;58411;-61
2023/05/30 05:13:36;;;;;;;7.00;3.10;;;;;;;18.48;44.52;100532.16;108705;1257;65086;-63
2023/05/30 05:16:04;;;;;;;7.50;3.20;;;;;;;18.56;44.32;100535.76;108723;1254;68071;-63
2023/05/30 05:18:32;;;;;;;6.70;3.50;;;;;;;18.62;44.11;100535.23;108806;1254;62456;-61
2023/05/30 05:20:59;;;;;;;8.00;2.90;;;;;;;18.70;43.78;100534.79;108806;1259;59136;-63
2023/05/30 05:23:28;;;;;;;7.50;2.80;;;;;;;18.83;43.19;100532.56;108830;1254;58486;-64
2023/05/30 05:25:56;;;;;;;5.90;2.60;;;;;;;18.89;43.47;100528.30;108861;1254;74418;-64
2023/05/30 05:28:24;;;;;;;13.00;3.20;;;;;;;18.97;43.58;100531.13;108820;1254;61511;-64
2023/05/30 05:30:52;;;;;;;8.10;2.60;;;;;;;19.06;43.26;100529.38;108799;1257;62542;-63
2023/05/30 05:33:20;;;;;;;7.80;2.90;;;;;;;19.14;42.26;100528.47;108665;1257;58503;-64
2023/05/30 05:35:48;;;;;;;7.40;2.50;;;;;;;19.23;42.31;100532.80;108837;1254;59353;-61
2023/05/30 05:38:16;;;;;;;6.30;2.70;;;;;;;19.31;42.57;100533.84;108696;1254;64967;-66
2023/05/30 05:40:44;;;;;;;5.60;2.40;;;;;;;19.40;42.01;100534.13;108857;1254;60111;-63
2023/05/30 05:43:11;;;;;;;6.30;2.60;;;;;;;19.47;41.77;100530.77;108789;1259;64155;-65
2023/05/30 05:45:39;;;;;;;8.40;2.80;;;;;;;19.55;41.86;100528.61;108774;1259;59205;-65
2023/05/30 05:48:06;;;;;;;6.50;2.50;;;;;;;19.64;41.99;100524.41;108676;1260;60125;-62
2023/05/30 05:50:34;;;;;;;7.30;2.90;;;;;;;19.73;41.12;100528.55;108919;1253;64974;-64
2023/05/30 05:53:01;;;;;;;7.10;2.80;;;;;;;19.80;40.79;100535.66;108788;1254;61467;-64
2023/05/30 05:55:29;;;;;;;7.80;3.00;;;;;;;19.87;40.94;100533.30;108868;1254;62444;-63
2023/05/30 05:57:56;;;;;;;7.20;2.50;;;;;;;19.95;40.89;100534.36;108831;1254;59008;-63
2023/05/30 06:00:25;;;;;;;6.10;2.50;;;;;;;20.03;40.99;100537.54;108834;1254;59065;-68
2023/05/30 06:02:52;;;;;;;4.60;2.30;;;;;;;20.11;40.86;100536.19;108868;1253;67470;-65
2023/05/30 06:05:20;;;;;;;8.20;2.80;;;;;;;20.19;40.53;100535.21;108806;1258;61503;-65
2023/05/30 06:07:48;;;;;;;8.50;2.50;;;;;;;20.27;40.37;100535.73;108909;1257;62546;-65
2023/05/30 06:10:15;;;;;;;7.10;2.50;;;;;;;20.34;40.09;100531.48;108807;1255;58249;-64
2023/05/30 06:12:45;;;;;;;7.60;2.30;;;;;;;20.41;40.11;100529.23;108675;1254;59850;-63
2023/05/30 06:15:12;;;;;;;5.80;2.30;;;;;;;20.49;39.62;100529.21;108671;1260;64894;-67
2023/05/30 06:17:40;;;;;;;9.00;2.60;;;;;;;20.56;39.75;100527.27;108722;1259;61321;-64
2023/05/30 06:20:08;;;;;;;5.50;2.40;;;;;;;20.64;39.83;100527.23;108829;1260;63812;-63
2023/05/30 06:22:35;;;;;;;7.70;2.50;;;;;;;20.73;39.37;100527.43;108771;1260;58492;-64
2023/05/30 06:25:04;;;;;;;7.20;2.60;;;;;;;20.81;39.34;100528.36;108795;1257;58904;-65
2023/05/30 06:27:31;;;;;;;6.20;2.60;;;;;;;20.90;39.54;100525.30;108828;1255;64938;-66
2023/05/30 06:29:59;;;;;;;6.50;2.20;;;;;;;21.00;38.88;100524.52;108606;1262;60156;-65
2023/05/30 06:32:27;;;;;;;4.20;2.00;;;;;;;21.09;38.05;100523.02;108810;1259;64359;-60
2023/05/30 06:34:54;;;;;;;7.20;2.20;;;;;;;21.17;37.73;100523.70;108796;1253;58695;-60
2023/05/30 06:37:22;;;;;;;4.40;2.00;;;;;;;21.24;37.82;100527.76;108817;1259;58127;-63
2023/05/30 06:39:49;;;;;;;5.90;2.50;;;;;;;21.32;36.73;100532.35;108855;1254;65521;-60
2023/05/30 06:42:17;;;;;;;5.60;2.40;;;;;;;21.39;37.31;100528.86;108890;1258;60075;-62
2023/05/30 06:44:44;;;;;;;7.00;2.00;;;;;;;21.46;38.01;100528.89;108853;1260;62518;-65
2023/05/30 06:47:12;;;;;;;5.30;2.00;;;;;;;21.53;37.35;100524.08;108749;1257;59128;-62
2023/05/30 06:49:39;;;;;;;5.10;1.70;;;;;;;21.60;36.46;100519.48;108785;1258;59509;-64
2023/05/30 06:52:06;;;;;;;5.40;2.30;;;;;;;21.66;35.65;100520.29;108796;1254;63648;-69
2023/05/30 06:54:35;;;;;;;6.60;1.90;;;;;;;21.71;36.16;100522.19;108686;1253;61871;-64
2023/05/30 06:57:04;;;;;;;5.60;2.10;;;;;;;21.77;36.47;100517.87;108649;1261;62601;-64
2023/05/30 06:59:33;;;;;;;5.10;1.70;;;;;;;21.84;35.94;100517.77;108809;1254;58417;-64
2023/05/30 07:02:01;;;;;;;5.80;1.80;;;;;;;21.89;35.02;100517.05;108656;1260;58573;-64
2023/05/30 07:04:29;;;;;;;4.30;1.90;;;;;;;21.95;35.22;100515.91;108664;1254;65220;-63
2023/05/30 07:06:57;;;;;;;5.70;2.00;;;;;;;22.02;35.27;100515.72;108697;1258;60105;-64
2023/05/30 07:09:26;;;;;;;4.80;1.60;;;;;;;22.10;35.12;100514.99;108831;1258;62415;-65
2023/05/30 07:11:53;;;;;;;5.50;1.70;;;;;;;22.16;34.89;100510.83;108808;1254;58702;-64
2023/05/30 07:14:21;;;;;;;5.80;1.70;;;;;;;22.21;34.02;100508.92;108677;1260;58703;-61
2023/05/30 07:16:48;;;;;;;5.40;1.80;;;;;;;22.23;33.54;100506.25;108781;1260;65120;-62
2023/05/30 07:19:16;;;;;;;5.60;1.90;;;;;;;22.27;33.84;100509.09;108814;1259;68951;-63
2023/05/30 07:21:43;;;;;;;8.90;1.90;;;;;;;22.31;34.06;100510.13;108830;1258;63872;-65
2023/05/30 07:24:11;;;;;;;5.40;1.70;;;;;;;22.38;33.23;100511.23;108801;1255;58232;-65
2023/05/30 07:26:38;;;;;;;3.80;1.30;;;;;;;22.42;33.12;100510.77;108591;1259;233232;-63
2023/05/30 07:40:28;;;;;;;3.30;1.50;;;;;;;22.65;32.89;100503.25;103968;1283;604901;-66
2023/05/30 07:42:56;;;;;;;5.80;2.00;;;;;;;23.11;31.86;100500.05;105575;1262;107524;-59
2023/05/30 07:45:23;;;;;;;4.40;1.60;;;;;;;23.10;31.45;100503.20;105853;1262;58845;-63
2023/05/30 07:47:51;;;;;;;3.60;1.50;;;;;;;23.08;31.84;100497.41;106330;1253;63282;-62
2023/05/30 07:50:19;;;;;;;3.30;1.40;;;;;;;23.05;31.48;100496.80;106410;1257;61745;-63
2023/05/30 07:52:47;;;;;;;7.40;1.60;;;;;;;23.06;31.88;100497.27;106347;1258;62511;-67
2023/05/30 07:55:14;;;;;;;5.00;1.90;;;;;;;23.05;31.18;100495.20;106286;1254;59965;-63
2023/05/30 07:57:42;;;;;;;4.00;1.70;;;;;;;23.01;30.71;100490.52;106353;1254;59248;-62
2023/05/30 08:00:10;;;;;;;4.60;1.50;;;;;;;22.98;31.45;100486.16;106586;1257;64048;-63
2023/05/30 08:02:37;;;;;;;4.30;1.70;;;;;;;22.98;32.02;100494.80;106471;1253;60076;-65
2023/05/30 08:05:05;;;;;;;3.70;1.30;;;;;;;23.01;31.90;100499.71;106450;1254;63715;-65
2023/05/30 08:07:33;;;;;;;3.40;1.40;;;;;;;23.02;32.01;100497.65;106491;1254;59672;-66
2023/05/30 08:10:00;;;;;;;5.70;1.90;;;;;;;23.06;31.47;100495.00;106509;1253;59709;-64
2023/05/30 08:12:31;;;;;;;4.90;1.70;;;;;;;23.09;30.94;100495.06;106461;1254;64516;-62
2023/05/30 08:14:58;;;;;;;3.60;1.30;;;;;;;23.11;30.96;100496.93;106468;1258;60190;-61
2023/05/30 08:17:29;;;;;;;5.60;2.00;;;;;;;23.14;31.20;100487.81;106230;1256;62726;-61
2023/05/30 08:19:57;;;;;;;4.40;1.80;;;;;;;23.17;30.96;100492.92;105844;1253;59688;-61
2023/05/30 08:22:25;;;;;;;4.70;1.90;;;;;;;23.17;30.65;100490.80;106286;1257;59648;-61
2023/05/30 08:24:59;;;;;;;4.80;2.00;;;;;;;23.16;30.62;100490.59;106173;1253;62857;-60
2023/05/30 08:27:27;;;;;;;4.40;1.50;;;;;;;23.16;30.30;100491.23;108758;1253;60265;-63
2023/05/30 08:29:54;;;;;;;5.50;1.70;;;;;;;23.21;31.60;100490.09;108870;1257;73566;-62
2023/05/30 08:32:22;;;;;;;4.30;1.70;;;;;;;23.30;31.44;100494.70;108824;1253;59382;-63
2023/05/30 08:34:49;;;;;;;4.30;1.40;;;;;;;23.39;31.54;100492.59;108830;1254;59310;-64
2023/05/30 08:37:18;;;;;;;4.40;1.80;;;;;;;23.47;31.35;100490.13;108829;1253;64074;-62
2023/05/30 08:39:46;;;;;;;4.80;1.80;;;;;;;23.54;30.56;100486.08;108753;1253;60239;-63
2023/05/30 08:42:14;;;;;;;4.30;1.70;;;;;;;23.60;30.80;100484.90;108767;1256;62443;-64
2023/05/30 08:44:41;;;;;;;5.80;1.90;;;;;;;23.68;30.05;100481.92;108696;1253;59831;-64
2023/05/30 08:47:11;;;;;;;6.30;1.50;;;;;;;23.71;29.91;100480.19;108838;1253;58416;-59
2023/05/30 08:49:42;;;;;;;4.00;1.50;;;;;;;23.73;28.97;100475.46;108821;1254;64335;-64
2023/05/30 08:52:13;;;;;;;5.30;1.70;;;;;;;23.75;29.55;100476.88;108863;1253;60181;-65
2023/05/30 08:54:46;;;;;;;3.70;1.50;;;;;;;23.69;29.66;100474.23;108805;1253;64229;-65
2023/05/30 08:57:23;;;;;;;4.50;1.80;;;;;;;23.70;29.86;100471.55;108589;1254;59480;-64
2023/05/30 08:59:51;;;;;;;4.80;1.50;;;;;;;23.76;29.43;100469.48;108802;1253;59441;-62
2023/05/30 09:02:19;;;;;;;7.20;1.50;;;;;;;23.80;28.90;100470.63;108749;1253;65697;-64
2023/05/30 09:04:47;;;;;;;8.00;1.70;;;;;;;23.82;29.02;100466.17;108819;1253;60101;-65
2023/05/30 09:07:15;;;;;;;4.30;1.60;;;;;;;23.96;29.06;100464.24;108827;1253;64266;-65
2023/05/30 09:09:43;;;;;;;7.60;2.00;;;;;;;24.03;29.33;100461.29;108784;1256;59185;-64
2023/05/30 09:12:10;;;;;;;5.60;1.70;;;;;;;24.05;29.36;100462.20;108873;1254;58538;-64
2023/05/30 09:14:38;;;;;;;4.00;1.70;;;;;;;24.07;28.74;100465.70;108805;1253;64102;-64
2023/05/30 09:17:06;;;;;;;3.70;1.70;;;;;;;24.11;28.82;100458.17;108836;1253;62149;-60
2023/05/30 09:19:34;;;;;;;5.50;1.70;;;;;;;24.19;28.78;100454.48;108742;1254;71469;-61
2023/05/30 09:22:01;;;;;;;4.40;1.80;;;;;;;24.25;28.47;100453.20;108705;1253;57797;-61
2023/05/30 09:25:00;;;;;;;5.60;1.60;;;;;;;24.30;29.26;100450.17;108861;1253;57634;-63
2023/05/30 09:27:28;;;;;;;4.00;1.70;;;;;;;24.38;29.43;100449.66;108808;1253;62922;-64
2023/05/30 09:29:56;;;;;;;5.60;1.40;;;;;;;24.42;28.24;100453.04;108812;1259;61368;-65
2023/05/30 09:32:34;;;;;;;5.90;1.80;;;;;;;24.43;28.04;100451.09;108749;1253;63864;-64
2023/05/30 09:35:09;;;;;;;3.90;1.60;;;;;;;24.47;27.84;100445.00;108803;1254;58087;-64
2023/05/30 09:37:38;;;;;;;6.00;2.00;;;;;;;24.56;28.24;100444.92;108839;1253;58544;-64
2023/05/30 09:40:11;;;;;;;4.80;1.80;;;;;;;24.64;28.53;100449.09;108850;1253;62822;-65
2023/05/30 09:42:43;;;;;;;5.20;1.70;;;;;;;24.70;28.89;100449.60;108820;1253;60944;-63
2023/05/30 09:45:12;;;;;;;4.40;1.50;;;;;;;24.73;27.92;100447.88;108826;1253;62514;-63
2023/05/30 09:47:44;;;;;;;5.10;1.50;;;;;;;24.76;27.95;100447.40;108801;1254;57696;-65
2023/05/30 09:50:16;;;;;;;4.40;1.60;;;;;;;24.79;27.05;100443.42;108782;1257;58076;-61
2023/05/30 09:52:44;;;;;;;5.90;1.50;;;;;;;24.80;26.96;100438.98;108822;1257;67217;-64
2023/05/30 09:55:12;;;;;;;4.20;1.40;;;;;;;24.82;27.16;100436.98;108776;1253;60226;-63
2023/05/30 09:57:40;;;;;;;5.60;1.80;;;;;;;24.86;26.90;100434.81;108835;1254;65785;-61
2023/05/30 10:00:11;;;;;;;4.20;1.30;;;;;;;24.91;26.75;100431.27;108768;1254;59290;-63
2023/05/30 10:02:40;;;;;;;3.10;1.50;;;;;;;24.96;26.18;100428.05;108875;1253;59566;-62
2023/05/30 10:05:25;;;;;;;3.90;1.40;;;;;;;24.97;26.13;100423.56;108762;1254;62865;-66
2023/05/30 10:07:54;;;;;;;5.70;1.80;;;;;;;25.00;27.15;100428.46;108815;1253;62023;-63
2023/05/30 10:10:22;;;;;;;4.90;2.10;;;;;;;25.06;27.21;100427.45;108814;1254;64225;-61
2023/05/30 10:12:51;;;;;;;4.80;1.40;;;;;;;25.10;26.12;100418.30;108746;1253;57400;-65
2023/05/30 10:15:19;;;;;;;3.60;1.50;;;;;;;25.11;26.36;100418.99;108700;1260;58813;-62
2023/05/30 10:17:55;;;;;;;3.90;1.60;;;;;;;25.14;27.06;100422.38;108805;1256;64271;-60
2023/05/30 10:20:24;;;;;;;4.50;1.80;;;;;;;25.18;27.01;100424.23;108774;1254;62398;-67
2023/05/30 10:22:55;;;;;;;4.90;1.70;;;;;;;25.21;26.19;100419.63;108732;1256;62438;-65
2023/05/30 10:25:22;;;;;;;4.00;1.40;;;;;;;25.23;26.62;100411.84;108758;1253;59004;-65
2023/05/30 10:27:54;;;;;;;4.10;1.80;;;;;;;25.29;26.33;100412.73;108787;1253;57909;-65
2023/05/30 10:32:05;;;;;;;4.70;1.90;;;;;;;25.32;25.88;100404.86;103585;1292;603044;-67
2023/05/30 10:47:26;;;;;;;;;;;;;;;25.69;25.01;100401.69;103030;1284;604960;-64
2023/05/30 10:49:54;;;;;;;4.70;1.80;;;;;;;26.04;24.33;100396.20;108425;1264;135126;-65
2023/05/30 10:52:31;;;;;;;5.30;1.70;;;;;;;26.01;25.17;100395.73;108463;1263;59306;-62
2023/05/30 10:54:58;;;;;;;5.80;1.70;;;;;;;26.02;25.19;100392.36;108557;1263;62081;-68
2023/05/30 10:57:27;;;;;;;4.30;1.40;;;;;;;26.06;24.58;100385.18;108655;1264;60163;-64
2023/05/30 10:59:55;;;;;;;6.10;1.80;;;;;;;26.09;25.06;100387.39;108584;1264;62582;-63
2023/05/30 11:02:38;;;;;;;8.20;1.80;;;;;;;26.10;25.33;100385.10;108578;1264;57228;-60
2023/05/30 11:05:09;;;;;;;7.40;2.30;;;;;;;26.10;24.50;100380.36;108562;1263;57129;-64
2023/05/30 11:07:38;;;;;;;4.70;1.90;;;;;;;26.08;24.15;100378.40;108521;1263;62444;-66
2023/05/30 11:10:07;;;;;;;6.20;1.70;;;;;;;26.05;24.23;100371.05;108529;1263;61678;-67
2023/05/30 11:12:44;;;;;;;5.70;1.90;;;;;;;26.06;24.14;100370.48;108491;1263;63009;-62
2023/05/30 11:15:15;;;;;;;3.90;1.90;;;;;;;26.06;24.63;100374.70;108564;1264;57691;-63
2023/05/30 11:17:42;;;;;;;5.40;2.10;;;;;;;26.07;25.07;100372.39;108588;1263;57340;-63
2023/05/30 11:20:14;;;;;;;5.30;1.80;;;;;;;26.09;24.84;100371.70;108494;1264;64293;-66
2023/05/30 11:23:00;;;;;;;5.00;2.00;;;;;;;26.13;23.98;100367.05;108554;1264;60223;-69
2023/05/30 11:25:29;;;;;;;5.20;2.20;;;;;;;26.19;24.26;100367.01;108553;1263;64119;-64
2023/05/30 11:28:06;;;;;;;4.60;2.20;;;;;;;26.23;25.36;100361.63;108469;1264;57814;-65
2023/05/30 11:30:37;;;;;;;6.40;2.70;;;;;;;26.33;26.33;100365.45;108437;1264;59628;-68
2023/05/30 11:33:11;;;;;;;6.00;2.70;;;;;;;26.41;26.49;100364.27;108471;1264;64319;-65
2023/05/30 11:35:38;;;;;;;6.50;2.20;;;;;;;26.44;26.79;100362.31;108508;1264;61385;-68
2023/05/30 11:38:06;;;;;;;5.80;2.20;;;;;;;26.50;27.19;100357.71;108526;1263;62768;-66
2023/05/30 11:40:33;;;;;;;6.60;2.40;;;;;;;26.56;27.10;100356.90;108498;1267;59577;-66
2023/05/30 11:43:00;;;;;;;4.70;2.50;;;;;;;26.60;26.65;100354.86;108522;1263;58649;-64
2023/05/30 11:45:28;;;;;;;7.00;2.70;;;;;;;26.62;25.71;100355.34;108536;1263;64764;-68
2023/05/30 11:48:10;;;;;;;6.60;2.50;;;;;;;26.64;26.27;100355.91;108547;1263;60202;-65
2023/05/30 11:50:39;;;;;;;5.50;2.10;;;;;;;26.67;25.76;100356.17;108569;1264;63725;-63
2023/05/30 11:53:24;;;;;;;4.40;1.90;;;;;;;26.71;26.17;100353.49;108466;1268;57645;-65